アタテュルク国際空港(イスタンブル)の過去48時間の天気

アタテュルク国際空港(イスタンブル) (Istanbul / Ataturk)

現在時刻: 10/20 19:12 +03 (10/20 16:12 UTC) 以下の時間は現地時間です。

過去48時間のMETAR気象情報
時間 風向 風速(m/s) 視程 気温(℃) 湿度(%) 気圧(hPa) 天気現象
20 18:50 北北東 5 10km以上 19 73 1022
20 18:20 5 10km以上 19 73 1022
20 17:50 5 10km以上 19 68 1021
20 17:20 北北東 5 10km以上 20 64 1021
20 16:50 4 10km以上 21 56 1021
20 16:20 北北東 4 10km以上 22 53 1021
20 15:50 南西 3 10km以上 21 73 1021
20 15:20 南西 3 10km以上 21 69 1021
20 14:50 南南西 3 10km以上 21 73 1021
20 14:20 3 10km以上 20 73 1021
20 13:50 3 10km以上 20 73 1022
20 13:20 2 10km以上 20 73 1022
20 12:50 3 10km以上 20 78 1022
20 12:20 南東 3 10km以上 20 78 1022
20 11:50 南東 3 10km以上 20 73 1022
20 11:20 東南東 3 10km以上 19 78 1022
20 10:50 東北東 3 10km以上 19 73 1022
20 10:20 東北東 3 8000m 19 73 1022
20 09:50 東北東 3 10km以上 19 73 1022
20 09:20 東北東 3 7000m 18 83 1022
20 08:50 北北東 2 6000m 18 83 1022
20 08:20 北北東 2 7000m 17 88 1022
20 07:50 3 7000m 14 100 1021
20 07:20 3 7000m 14 94 1021
20 06:50 3 7000m 14 94 1021
20 06:20 3 7000m 14 94 1021
20 05:50 3 8000m 14 100 1021
20 05:20 3 7000m 15 94 1021
20 04:50 3 8000m 16 88 1021
20 04:20 北北東 3 8000m 17 88 1021
20 03:50 3 9000m 17 88 1020
20 03:20 3 8000m 16 94 1021
20 02:50 4 8000m 17 88 1021
20 02:20 4 10km以上 17 88 1020
20 01:50 4 10km以上 18 83 1020
20 01:20 3 8000m 18 83 1020
20 00:50 3 8000m 17 88 1020
20 00:20 4 7000m 18 83 1020
19 23:50 3 8000m 18 83 1020
19 23:20 3 10km以上 18 88 1020
19 22:50 3 10km以上 18 83 1020
19 22:20 北東 3 10km以上 18 83 1020
19 21:50 北東 2 10km以上 19 83 1020
19 21:20 北東 3 10km以上 19 83 1020
19 20:50 北東 2 10km以上 19 83 1020
19 20:20 北東 3 10km以上 19 83 1020
19 19:50 北北東 3 8000m 19 83 1020
19 19:20 北北東 4 7000m 20 78 1020
19 18:50 北北東 4 7000m 20 78 1019
19 18:20 北北東 5 7000m 21 73 1019
19 17:50 北北東 5 7000m 21 69 1019
19 17:20 5 7000m 22 69 1019
19 16:50 不定 1 7000m 23 69 1019
19 16:20 西南西 2 6000m 22 73 1019
19 15:50 南西 2 6000m 22 73 1019
19 15:20 南西 3 6000m 22 73 1019
19 14:50 南西 3 7000m 22 73 1019
19 14:20 南南西 3 7000m 22 73 1019
19 13:50 南南西 2 6000m 22 73 1019
19 13:20 南西 4 4000m 20 88 1019 もや
19 12:50 南西 4 4000m 20 88 1019 もや
19 12:20 西南西 4 4500m 21 83 1020 もや
19 11:50 西南西 3 7000m 21 78 1020
19 11:20 南西 3 7000m 21 78 1020
19 10:50 不定 1 7000m 21 73 1020
19 10:20 不定 1 6000m 20 83 1020
19 09:50 2 4000m 20 83 1020 もや
19 09:20 東北東 2 4000m 19 88 1020 もや
19 08:50 不定 1 2000m 18 94 1019 もや
19 08:20 不定 2 2000m 17 100 1019 もや
19 07:50 北北東 2 3000m 18 94 1019 もや
19 07:20 北東 2 3000m 17 100 1019 もや
19 06:50 2 2500m 18 94 1019 もや
19 06:20 不定 1 2000m 18 94 1019 もや
19 05:50 不定 1 3000m 18 94 1019 もや
19 05:20 北西 2 3000m 17 94 1018 もや
19 04:50 2 3300m 16 94 1018 もや
19 04:20 2 3500m 15 100 1018 もや
19 03:50 2 4000m 15 94 1018 もや
19 03:20 2 4500m 16 94 1018 もや
19 02:50 2 4500m 15 100 1018 もや
19 02:20 3 4500m 16 94 1018 もや
19 01:50 2 4500m 15 94 1018 もや
19 01:20 2 4500m 16 94 1018 もや
19 00:50 2 7000m 16 94 1018
19 00:20 北北西 2 7000m 16 94 1018
18 23:50 北北西 3 7000m 17 88 1018
18 23:20 北北西 2 7000m 17 94 1018
18 22:50 北北東 1 7000m 19 83 1019
18 22:20 北東 2 7000m 19 83 1019
18 21:50 北東 3 7000m 19 83 1018
18 21:20 北東 3 7000m 19 88 1018
18 20:50 北北東 1 6000m 18 88 1018
18 20:20 北東 1 4500m 19 83 1018 もや
18 19:50 北東 1 4000m 19 88 1018 もや
18 19:20 不定 1 4000m 19 88 1018 もや
LTBA 201550Z 03009KT CAVOK 19/14 Q1022 NOSIG RMK RWY17L 03008KT RWY05 01010KT RWY23 03011KT
LTBA 201520Z 36009KT CAVOK 19/14 Q1022 NOSIG RMK RWY17L 02010KT RWY05 36008KT RWY23 02008KT
LTBA 201450Z 36010KT CAVOK 19/13 Q1021 NOSIG RMK RWY17L 03004KT 360V070 RWY05 34008KT RWY23 03008KT 360V070
LTBA 201420Z 02009KT CAVOK 20/13 Q1021 NOSIG RMK RWY17L 02006KT RWY05 35008KT RWY23 02008KT
LTBA 201350Z 01008KT 340V050 CAVOK 21/12 Q1021 NOSIG RMK RWY17L 03007KT 340V050 RWY05 01008KT RWY23 01008KT 340V050
LTBA 201320Z 02007KT 350V060 CAVOK 22/12 Q1021 NOSIG RMK RWY17L 01008KT 340V040 RWY05 VRB02KT RWY23 03009KT 350V110
LTBA 201250Z 23005KT 190V260 CAVOK 21/16 Q1021 NOSIG RMK RWY17L 01008KT 330V070 RWY05 22004KT 190V260 RWY23 26003KT 200V300
LTBA 201220Z 22005KT 190V250 CAVOK 21/15 Q1021 NOSIG RMK RWY17L 22005KT 160V300 RWY05 22004KT 180V250 RWY23 25005KT 220V280
LTBA 201150Z 21006KT 170V240 CAVOK 21/16 Q1021 NOSIG RMK RWY17L 19005KT 160V220 RWY05 19004KT RWY23 22005KT 160V260
LTBA 201120Z 19006KT 170V230 CAVOK 20/15 Q1021 NOSIG RMK RWY17L 22006KT 190V250 RWY05 20005KT RWY23 20006KT 170V230
LTBA 201050Z 19006KT CAVOK 20/15 Q1022 NOSIG RMK RWY17L 20006KT 160V220 RWY05 18004KT 140V200 RWY23 19005KT 140V220
LTBA 201020Z 19004KT 140V240 CAVOK 20/15 Q1022 NOSIG RMK RWY17L 18005KT 120V220 RWY05 19003KT 100V240 RWY23 21005KT 180V240
LTBA 200950Z 19005KT 150V240 CAVOK 20/16 Q1022 NOSIG RMK RWY17L 18005KT 150V220 RWY05 18004KT 150V230 RWY23 17004KT 100V230
LTBA 200920Z 14005KT CAVOK 20/16 Q1022 NOSIG RMK RWY17L 18004KT 140V220 RWY05 13004KT 080V200 RWY23 16005KT
LTBA 200850Z 13006KT 110V170 CAVOK 20/15 Q1022 NOSIG RMK RWY17L 36004KT 280V070 RWY05 VRB05KT RWY23 13006KT
LTBA 200820Z 12006KT CAVOK 19/15 Q1022 NOSIG RMK RWY17L 06005KT 350V110 RWY05 11006KT 080V140 RWY23 14006KT
LTBA 200750Z 07005KT CAVOK 19/14 Q1022 NOSIG RMK RWY17L 06005KT 020V090 RWY05 03004KT 350V050 RWY23 02006KT
LTBA 200720Z 06006KT 8000 FEW017 19/14 Q1022 NOSIG RMK RWY17L 03007KT 350V070 RWY05 02006KT RWY23 04006KT
LTBA 200650Z 06006KT 020V160 CAVOK 19/14 Q1022 NOSIG RMK RWY17L 06006KT 030V090 RWY05 03005KT RWY23 06007KT 010V100
LTBA 200620Z 06005KT 030V090 7000 NSC 18/15 Q1022 NOSIG RMK RWY17L 05006KT 010V090 RWY05 05005KT RWY23 08005KT 050V110
LTBA 200550Z 03004KT 350V080 6000 NSC 18/15 Q1022 NOSIG RMK RWY17L 02004KT 340V060 RWY05 04004KT RWY23 05005KT
LTBA 200520Z 03004KT 7000 NSC 17/15 Q1022 NOSIG RMK RWY17L VRB04KT RWY05 03003KT RWY23 05004KT
LTBA 200450Z 35006KT 7000 NSC 14/14 Q1021 NOSIG RMK RWY17L 35003KT RWY05 35004KT 320V040 RWY23 01004KT 300V060
LTBA 200420Z 35006KT 7000 NSC 14/13 Q1021 NOSIG RMK RWY17L 35004KT RWY05 35003KT RWY23 01003KT
LTBA 200350Z 35006KT 7000 NSC 14/13 Q1021 NOSIG RMK RWY17L 34004KT RWY05 34004KT RWY23 35004KT
LTBA 200320Z 36005KT 7000 NSC 14/13 Q1021 NOSIG RMK RWY17L 35004KT RWY05 36003KT RWY23 02004KT
LTBA 200250Z 36005KT 8000 NSC 14/14 Q1021 NOSIG RMK RWY17L 36004KT 330V030 RWY05 36004KT RWY23 02004KT
LTBA 200220Z 36006KT 7000 NSC 15/14 Q1021 NOSIG RMK RWY17L 35004KT RWY05 36004KT RWY23 02004KT
LTBA 200150Z 01005KT 8000 NSC 16/14 Q1021 NOSIG RMK RWY17L 35005KT RWY05 35005KT RWY23 01004KT
LTBA 200120Z 02005KT 8000 NSC 17/15 Q1021 NOSIG RMK RWY17L 01004KT RWY05 01005KT RWY23 02005KT
LTBA 200050Z 01005KT 9000 NSC 17/15 Q1020 NOSIG RMK RWY17L 36004KT RWY05 01004KT RWY23 02006KT
LTBA 200020Z 36005KT 8000 FEW040 16/15 Q1021 NOSIG RMK RWY17L 36006KT RWY05 35005KT RWY23 02005KT
LTBA 192350Z 01007KT 8000 FEW040 17/15 Q1021 NOSIG RMK RWY17L 36005KT RWY05 35008KT RWY23 02007KT
LTBA 192320Z 01008KT CAVOK 17/15 Q1020 NOSIG RMK RWY17L 01009KT RWY05 36008KT RWY23 02007KT
LTBA 192250Z 01008KT CAVOK 18/15 Q1020 NOSIG RMK RWY17L 36007KT RWY05 36007KT RWY23 02007KT
LTBA 192220Z 01006KT 8000 NSC 18/15 Q1020 NOSIG RMK RWY17L 35005KT RWY05 36006KT RWY23 02005KT
LTBA 192150Z 01006KT 8000 NSC 17/15 Q1020 NOSIG RMK RWY17L 36005KT RWY05 36005KT RWY23 02006KT
LTBA 192120Z 01007KT 7000 NSC 18/15 Q1020 NOSIG RMK RWY17L 36006KT RWY05 36006KT RWY23 02006KT
LTBA 192050Z 01006KT 8000 NSC 18/15 Q1020 NOSIG RMK RWY17L 01005KT RWY05 01004KT RWY23 02006KT
LTBA 192020Z 01005KT CAVOK 18/16 Q1020 NOSIG RMK RWY17L 01005KT RWY05 36005KT RWY23 02005KT
LTBA 191950Z 01006KT CAVOK 18/15 Q1020 NOSIG RMK RWY17L 02006KT RWY05 01004KT RWY23 03006KT
LTBA 191920Z 04006KT CAVOK 18/15 Q1020 NOSIG RMK RWY17L 04005KT RWY05 02007KT RWY23 04005KT
LTBA 191850Z 05003KT CAVOK 19/16 Q1020 NOSIG RMK RWY17L 02004KT RWY05 03004KT RWY23 05005KT
LTBA 191820Z 04005KT CAVOK 19/16 Q1020 NOSIG RMK RWY17L 03004KT 360V080 RWY05 03006KT RWY23 05006KT
LTBA 191750Z 04004KT 360V120 CAVOK 19/16 Q1020 NOSIG RMK RWY17L 02005KT RWY05 04005KT RWY23 05006KT 360V070
LTBA 191720Z 04006KT CAVOK 19/16 Q1020 NOSIG RMK RWY17L 02006KT RWY05 03008KT RWY23 05006KT
LTBA 191650Z 03006KT 8000 NSC 19/16 Q1020 NOSIG RMK RWY17L 03006KT 010V070 RWY05 03009KT RWY23 05007KT
LTBA 191620Z 03008KT 7000 NSC 20/16 Q1020 NOSIG RMK RWY17L 02007KT 360V060 RWY05 03008KT RWY23 04009KT
LTBA 191550Z 03008KT 7000 NSC 20/16 Q1019 NOSIG RMK RWY17L 01006KT RWY05 02010KT RWY23 04007KT
LTBA 191520Z 03009KT 7000 NSC 21/16 Q1019 NOSIG RMK RWY17L 03009KT RWY05 03009KT RWY23 05009KT
LTBA 191450Z 03010KT 7000 NSC 21/15 Q1019 NOSIG RMK RWY17L 02009KT RWY05 01009KT RWY23 04010KT
LTBA 191420Z 01009KT 7000 NSC 22/16 Q1019 NOSIG RMK RWY17L 01008KT RWY05 36009KT RWY23 02010KT
LTBA 191350Z VRB01KT 7000 NSC 23/17 Q1019 NOSIG RMK RWY17L 01008KT RWY05 00000KT RWY23 VRB03KT
LTBA 191320Z 24003KT 190V270 6000 FEW006 22/17 Q1019 NOSIG RMK RWY17L VRB02KT RWY05 VRB02KT RWY23 14004KT 100V180
LTBA 191250Z 22004KT 140V260 6000 FEW006 22/17 Q1019 NOSIG RMK RWY17L 18005KT RWY05 21003KT 180V240 RWY23 23004KT
LTBA 191220Z 23006KT 200V260 6000 FEW006 22/17 Q1019 NOSIG RMK RWY17L 22006KT RWY05 21005KT RWY23 23006KT
LTBA 191150Z 22005KT 7000 NSC 22/17 Q1019 NOSIG RMK RWY17L 20006KT RWY05 22005KT RWY23 22006KT 170V260
LTBA 191120Z 21005KT 180V240 7000 NSC 22/17 Q1019 NOSIG RMK RWY17L VRB02KT RWY05 21004KT RWY23 22003KT 160V270
LTBA 191050Z 21004KT 180V260 6000 NSC 22/17 Q1019 NOSIG RMK RWY17L 22003KT 150V270 RWY05 21004KT 180V250 RWY23 23005KT 200V260
LTBA 191020Z 22007KT 4000 BR SCT006 20/18 Q1019 BECMG 6000
LTBA 190950Z 22007KT 4000 BR SCT006 20/18 Q1019 BECMG 6000
LTBA 190920Z 24008KT 4500 BR FEW009 21/18 Q1020 BECMG 6000
LTBA 190850Z 24005KT 190V280 7000 FEW012 21/17 Q1020 NOSIG RMK RWY17L 33004KT 270V020 RWY05 VRB04KT RWY23 21005KT 180V250
LTBA 190820Z 22006KT 190V250 7000 NSC 21/17 Q1020 NOSIG RMK RWY17L 33004KT 280V010 RWY05 20006KT RWY23 23006KT 150V320
LTBA 190750Z VRB02KT 7000 NSC 21/16 Q1020 NOSIG RMK RWY17L 34004KT 300V040 RWY05 22004KT 200V260 RWY23 02003KT 330V050
LTBA 190720Z VRB02KT 6000 FEW009 20/17 Q1020 NOSIG RMK RWY17L 35004KT 310V020 RWY05 VRB02KT RWY23 02003KT 330V060
LTBA 190650Z 09003KT 060V120 4000 BR SCT005 20/17 Q1020 BECMG 6000
LTBA 190620Z 07003KT 040V100 4000 BR SCT005 19/17 Q1020 BECMG 6000
LTBA 190550Z VRB02KT 2000 BR BKN005 18/17 Q1019 TEMPO FM0620 4000
LTBA 190520Z VRB03KT 2000 BR BKN010 17/17 Q1019 NOSIG RMK RWY17L 06003KT 030V150 RWY05 04003KT 010V070 RWY23 03005KT 330V060
LTBA 190450Z 03004KT 360V060 3000 BR BKN030 18/17 Q1019 NOSIG RMK RWY17L VRB02KT RWY05 VRB02KT RWY23 05004KT 030V130
LTBA 190420Z 04003KT 350V090 3000 BR BKN032 17/17 Q1019 NOSIG RMK RWY17L VRB02KT RWY05 VRB02KT RWY23 09003KT 030V150
LTBA 190350Z 08003KT 040V120 2500 BR OVC021 18/17 Q1019 NOSIG RMK RWY17L 00000KT RWY05 VRB01KT RWY23 00000KT
LTBA 190320Z VRB02KT 2000 BR BKN012 18/17 Q1019 NOSIG RMK RWY17L VRB02KT RWY05 VRB02KT RWY23 VRB02KT
LTBA 190250Z VRB01KT 3000 BR BKN012 18/17 Q1019 NOSIG RMK RWY17L 20003KT 170V230 RWY05 00000KT RWY23 VRB02KT
LTBA 190220Z 32003KT 3000 BR BKN010 17/16 Q1018 NOSIG
LTBA 190150Z 35003KT 3300 BR SCT012 16/15 Q1018 NOSIG
LTBA 190120Z 01004KT 3500 BR SCT012 15/15 Q1018 NOSIG
LTBA 190050Z 35004KT 4000 BR SCT015 15/14 Q1018 NOSIG
LTBA 190020Z 36004KT 4500 BR NSC 16/15 Q1018 NOSIG
LTBA 182350Z 36004KT 4500 BR NSC 15/15 Q1018 NOSIG
LTBA 182320Z 36005KT 4500 BR NSC 16/15 Q1018 NOSIG
LTBA 182250Z 36004KT 4500 BR NSC 15/14 Q1018 NOSIG
LTBA 182220Z 36004KT 4500 BR NSC 16/15 Q1018 NOSIG RMK RWY17L VRB02KT RWY05 VRB01KT RWY23 36002KT
LTBA 182150Z 35004KT 7000 NSC 16/15 Q1018 NOSIG RMK RWY17L 34003KT RWY05 00000KT RWY23 36001KT
LTBA 182120Z 34004KT 7000 NSC 16/15 Q1018 NOSIG RMK RWY17L 33003KT RWY05 33002KT RWY23 00000KT
LTBA 182050Z 34005KT 7000 NSC 17/15 Q1018 NOSIG RMK RWY17L 34004KT RWY05 VRB02KT RWY23 05003KT
LTBA 182020Z 34004KT 7000 NSC 17/16 Q1018 NOSIG RMK RWY17L 36004KT RWY05 VRB02KT RWY23 02003KT
LTBA 181950Z 03002KT 7000 NSC 19/16 Q1019 NOSIG RMK RWY17L 03003KT RWY05 03004KT RWY23 04004KT 350V080
LTBA 181920Z 05004KT 7000 NSC 19/16 Q1019 NOSIG RMK RWY17L VRB02KT RWY05 03003KT RWY23 07004KT
LTBA 181850Z 05005KT 7000 NSC 19/16 Q1018 NOSIG RMK RWY17L 03004KT 360V070 RWY05 04005KT RWY23 05004KT 010V070
LTBA 181820Z 05005KT 7000 NSC 19/17 Q1018 NOSIG RMK RWY17L 04004KT RWY05 05005KT RWY23 06006KT
LTBA 181750Z 02002KT 6000 NSC 18/16 Q1018 NOSIG RMK RWY17L 02003KT RWY05 VRB01KT RWY23 08002KT
LTBA 181720Z 05002KT 4500 BR NSC 19/16 Q1018 NOSIG RMK RWY17L 01003KT 340V040 RWY05 00000KT RWY23 04003KT
LTBA 181650Z 04001KT 4000 BR NSC 19/17 Q1018 NOSIG RMK RWY17L 04005KT 360V060 RWY05 00000KT RWY23 07003KT
LTBA 181620Z VRB02KT 4000 BR FEW030 19/17 Q1018 NOSIG RMK RWY17L 07004KT 040V100 RWY05 VRB02KT RWY23 VRB02KT